Time;durP1;ratioP1;P1;durP2;ratioP2;P2;SDS_P1;SDS_P2;PMS_P1;PMS_P2;Temp;Humidity;BMP_temperature;BMP_pressure;BME280_temperature;BME280_humidity;BME280_pressure;Samples;Min_cycle;Max_cycle;Signal;HPM_P1;HPM_P2
2023/07/18 00:01:43;;;;;;;;;;;17.30;99.90;;;;;;7331491;19;110082;-67
2023/07/18 00:04:10;;;;;;;;;;;17.30;99.90;;;;;;7336197;19;108618;-67
2023/07/18 00:06:40;;;;;;;;;;;17.20;99.90;;;;;;7335597;19;110658;-66
2023/07/18 00:09:07;;;;;;;;;;;17.20;99.90;;;;;;7334371;19;109092;-66
2023/07/18 00:11:36;;;;;;;;;;;17.10;99.90;;;;;;7334735;19;108552;-67
2023/07/18 00:14:03;;;;;;;;;;;17.10;99.90;;;;;;7339005;19;111031;-67
2023/07/18 00:16:30;;;;;;;;;;;17.10;99.90;;;;;;7329289;19;108553;-66
2023/07/18 00:18:57;;;;;;;;;;;17.00;99.90;;;;;;7336420;19;109359;-66
2023/07/18 00:21:27;;;;;;;;;;;17.00;99.90;;;;;;7326406;19;110082;-66
2023/07/18 00:23:54;;;;;;;;;;;16.90;99.90;;;;;;7332273;19;109482;-66
2023/07/18 00:26:25;;;;;;;;;;;16.90;99.90;;;;;;7331305;19;108788;-66
2023/07/18 00:28:53;;;;;;;;;;;16.90;99.90;;;;;;7333446;19;110378;-65
2023/07/18 00:31:21;;;;;;;;;;;16.80;99.90;;;;;;7330725;19;109429;-67
2023/07/18 00:33:48;;;;;;;;;;;16.80;99.90;;;;;;7339849;19;109508;-67
2023/07/18 00:36:16;;;;;;;;;;;16.70;99.90;;;;;;7330867;19;108790;-67
2023/07/18 00:38:43;;;;;;;;;;;16.70;99.90;;;;;;7331145;19;109724;-67
2023/07/18 00:41:11;;;;;;;;;;;16.60;99.90;;;;;;7330209;19;109532;-67
2023/07/18 00:43:38;;;;;;;;;;;16.60;99.90;;;;;;7335278;19;109949;-67
2023/07/18 00:46:08;;;;;;;;;;;16.40;99.90;;;;;;7336628;19;108517;-67
2023/07/18 00:48:35;;;;;;;;;;;16.40;99.90;;;;;;7335480;19;109750;-67
2023/07/18 00:51:07;;;;;;;;;;;16.40;99.90;;;;;;7335183;19;108794;-67
2023/07/18 00:53:35;;;;;;;;;;;16.40;99.90;;;;;;7332857;19;108604;-69
2023/07/18 00:56:02;;;;;;;;;;;16.30;99.90;;;;;;7336724;19;113781;-67
2023/07/18 00:58:30;;;;;;;;;;;16.30;99.90;;;;;;7332027;19;108579;-66
2023/07/18 01:00:57;;;;;;;;;;;16.30;99.90;;;;;;7332805;19;108821;-66
2023/07/18 01:03:24;;;;;;;;;;;16.20;99.90;;;;;;7335195;19;108454;-66
2023/07/18 01:05:53;;;;;;;;;;;16.10;99.90;;;;;;7332825;19;108542;-66
2023/07/18 01:08:20;;;;;;;;;;;16.10;99.90;;;;;;7333582;19;109556;-66
2023/07/18 01:10:47;;;;;;;;;;;16.10;99.90;;;;;;7334152;19;108967;-66
2023/07/18 01:13:14;;;;;;;;;;;16.10;99.90;;;;;;7332070;19;109045;-69
2023/07/18 01:15:43;;;;;;;;;;;16.10;99.90;;;;;;7333202;19;110208;-66
2023/07/18 01:18:10;;;;;;;;;;;16.00;99.90;;;;;;7335863;19;108619;-66
2023/07/18 01:20:37;;;;;;;;;;;16.00;99.90;;;;;;7334237;19;109107;-66
2023/07/18 01:23:05;;;;;;;;;;;16.00;99.90;;;;;;7329583;19;110634;-73
2023/07/18 01:25:33;;;;;;;;;;;15.90;99.90;;;;;;7331445;19;111851;-69
2023/07/18 01:28:01;;;;;;;;;;;15.90;99.90;;;;;;7326165;19;109849;-68
2023/07/18 01:30:28;;;;;;;;;;;15.90;99.90;;;;;;7328552;19;109165;-68
2023/07/18 01:32:57;;;;;;;;;;;15.90;99.90;;;;;;7330072;19;110520;-69
2023/07/18 01:35:26;;;;;;;;;;;15.80;99.90;;;;;;7327428;19;109263;-66
2023/07/18 01:37:54;;;;;;;;;;;15.80;99.90;;;;;;7327833;19;109921;-67
2023/07/18 01:40:22;;;;;;;;;;;15.70;99.90;;;;;;7333513;19;112688;-66
2023/07/18 01:42:52;;;;;;;;;;;15.80;99.90;;;;;;7331824;19;108900;-66
2023/07/18 01:45:21;;;;;;;;;;;15.70;99.90;;;;;;7327719;19;110103;-66
2023/07/18 01:47:49;;;;;;;;;;;15.60;99.90;;;;;;7329846;19;109094;-66
2023/07/18 01:50:16;;;;;;;;;;;15.60;99.90;;;;;;7331654;19;109050;-66
2023/07/18 01:52:43;;;;;;;;;;;15.50;99.90;;;;;;7331688;19;108367;-69
2023/07/18 01:55:10;;;;;;;;;;;15.50;99.90;;;;;;7328196;19;109537;-68
2023/07/18 01:57:40;;;;;;;;;;;15.50;99.90;;;;;;7329599;19;109564;-66
2023/07/18 02:00:10;;;;;;;;;;;15.40;99.90;;;;;;7332849;19;108657;-67
2023/07/18 02:02:41;;;;;;;;;;;15.40;99.90;;;;;;7338486;19;110261;-69
2023/07/18 02:05:08;;;;;;;;;;;15.40;99.90;;;;;;7329914;19;110069;-67
2023/07/18 02:07:35;;;;;;;;;;;15.40;99.90;;;;;;7331156;19;109287;-69
2023/07/18 02:10:02;;;;;;;;;;;15.30;99.90;;;;;;7333375;19;109119;-72
2023/07/18 02:12:30;;;;;;;;;;;15.30;99.90;;;;;;7330589;19;109047;-69
2023/07/18 02:14:57;;;;;;;;;;;15.30;99.90;;;;;;7331132;19;109495;-67
2023/07/18 02:17:24;;;;;;;;;;;15.30;99.90;;;;;;7328770;19;108428;-67
2023/07/18 02:19:51;;;;;;;;;;;15.20;99.90;;;;;;7327509;19;109038;-70
2023/07/18 02:22:19;;;;;;;;;;;15.20;99.90;;;;;;7326048;19;110640;-69
2023/07/18 02:24:48;;;;;;;;;;;15.20;99.90;;;;;;7340520;19;108688;-69
2023/07/18 02:27:15;;;;;;;;;;;15.10;99.90;;;;;;7337558;19;109430;-69
2023/07/18 02:29:42;;;;;;;;;;;15.10;99.90;;;;;;7337852;19;110162;-69
2023/07/18 02:32:10;;;;;;;;;;;15.10;99.90;;;;;;7338640;19;110434;-69
2023/07/18 02:34:38;;;;;;;;;;;15.10;99.90;;;;;;7337013;19;109089;-67
2023/07/18 02:37:05;;;;;;;;;;;15.10;99.90;;;;;;7338836;19;111249;-72
2023/07/18 02:39:35;;;;;;;;;;;15.00;99.90;;;;;;7335605;19;109100;-74
2023/07/18 02:42:03;;;;;;;;;;;15.00;99.90;;;;;;7326026;19;109907;-68
2023/07/18 02:44:30;;;;;;;;;;;15.00;99.90;;;;;;7326498;19;110854;-67
2023/07/18 02:46:57;;;;;;;;;;;15.00;99.90;;;;;;7327831;19;112794;-67
2023/07/18 02:49:24;;;;;;;;;;;15.00;99.90;;;;;;7325360;19;110924;-67
2023/07/18 02:51:51;;;;;;;;;;;15.00;99.90;;;;;;7328682;19;112157;-69
2023/07/18 02:54:19;;;;;;;;;;;14.90;99.90;;;;;;7335128;19;110088;-77
2023/07/18 02:56:48;;;;;;;;;;;14.90;99.90;;;;;;7368172;19;108994;-90
2023/07/18 02:59:20;;;;;;;;;;;14.90;99.90;;;;;;7366678;19;110310;-89
2023/07/18 03:01:50;;;;;;;;;;;14.80;99.90;;;;;;7364001;19;109192;-89
2023/07/18 03:04:18;;;;;;;;;;;14.70;99.90;;;;;;7347310;19;109176;-70
2023/07/18 03:06:47;;;;;;;;;;;14.70;99.90;;;;;;7339386;19;109746;-67
2023/07/18 03:09:19;;;;;;;;;;;14.70;99.90;;;;;;7337354;19;110069;-67
2023/07/18 03:11:46;;;;;;;;;;;14.70;99.90;;;;;;7338465;19;109161;-67
2023/07/18 03:14:14;;;;;;;;;;;14.70;99.90;;;;;;7334839;19;110155;-70
2023/07/18 03:16:42;;;;;;;;;;;14.70;99.90;;;;;;7333660;19;108958;-69
2023/07/18 03:19:14;;;;;;;;;;;14.60;99.90;;;;;;7331613;19;110185;-67
2023/07/18 03:21:44;;;;;;;;;;;14.60;99.90;;;;;;7335349;19;111829;-66
2023/07/18 03:24:11;;;;;;;;;;;14.60;99.90;;;;;;7336422;19;108560;-67
2023/07/18 03:26:38;;;;;;;;;;;14.60;99.90;;;;;;7334804;19;110128;-67
2023/07/18 03:29:06;;;;;;;;;;;14.50;99.90;;;;;;7341016;19;110988;-67
2023/07/18 03:31:33;;;;;;;;;;;14.50;99.90;;;;;;7337558;19;109169;-68
2023/07/18 03:34:01;;;;;;;;;;;14.50;99.90;;;;;;7331414;19;110004;-67
2023/07/18 03:36:28;;;;;;;;;;;14.50;99.90;;;;;;7332581;19;109302;-67
2023/07/18 03:38:55;;;;;;;;;;;14.50;99.90;;;;;;7331406;19;111653;-67
2023/07/18 03:41:22;;;;;;;;;;;14.50;99.90;;;;;;7334945;19;109088;-67
2023/07/18 03:43:50;;;;;;;;;;;14.50;99.90;;;;;;7331240;19;109172;-67
2023/07/18 03:46:17;;;;;;;;;;;14.40;99.90;;;;;;7333944;19;108922;-67
2023/07/18 03:48:44;;;;;;;;;;;14.40;99.90;;;;;;7330606;19;109534;-67
2023/07/18 03:51:11;;;;;;;;;;;14.40;99.90;;;;;;7340433;19;108573;-67
2023/07/18 03:53:39;;;;;;;;;;;14.40;99.90;;;;;;7331007;19;111433;-67
2023/07/18 03:56:06;;;;;;;;;;;14.30;99.90;;;;;;7332890;19;108618;-67
2023/07/18 03:58:34;;;;;;;;;;;14.30;99.90;;;;;;7332077;19;110107;-67
2023/07/18 04:01:10;;;;;;;;;;;14.30;99.90;;;;;;7334281;19;109394;-66
2023/07/18 04:03:38;;;;;;;;;;;14.30;99.90;;;;;;7334528;19;110340;-65
2023/07/18 04:06:06;;;;;;;;;;;14.30;99.90;;;;;;7335416;19;108665;-66
2023/07/18 04:08:33;;;;;;;;;;;14.30;99.90;;;;;;7333640;19;108963;-66
2023/07/18 04:11:00;;;;;;;;;;;14.30;99.90;;;;;;7330452;19;109637;-67
2023/07/18 04:13:27;;;;;;;;;;;14.30;99.90;;;;;;7339283;19;109826;-67
2023/07/18 04:15:54;;;;;;;;;;;14.30;99.90;;;;;;7331214;19;109632;-67
2023/07/18 04:18:22;;;;;;;;;;;14.20;99.90;;;;;;7333832;19;110080;-67
2023/07/18 04:20:49;;;;;;;;;;;14.30;99.90;;;;;;7332232;19;110027;-67
2023/07/18 04:23:17;;;;;;;;;;;14.30;99.90;;;;;;7335604;19;109763;-67
2023/07/18 04:25:54;;;;;;;;;;;14.30;99.90;;;;;;7332362;19;108775;-66
2023/07/18 04:28:21;;;;;;;;;;;14.20;99.90;;;;;;7334026;19;110834;-67
2023/07/18 04:30:48;;;;;;;;;;;14.20;99.90;;;;;;7333150;19;109037;-66
2023/07/18 04:33:15;;;;;;;;;;;14.20;99.90;;;;;;7332872;19;108777;-67
2023/07/18 04:35:44;;;;;;;;;;;14.30;99.90;;;;;;7333833;19;110276;-67
2023/07/18 04:38:13;;;;;;;;;;;14.30;99.90;;;;;;7332531;19;111562;-66
2023/07/18 04:40:41;;;;;;;;;;;14.20;99.90;;;;;;7327121;19;110413;-67
2023/07/18 04:43:08;;;;;;;;;;;14.30;99.90;;;;;;7333637;19;109231;-67
2023/07/18 04:45:45;;;;;;;;;;;14.30;99.90;;;;;;7332392;19;108713;-67
2023/07/18 04:48:13;;;;;;;;;;;14.30;99.90;;;;;;7330636;19;109969;-67
2023/07/18 04:50:41;;;;;;;;;;;14.40;99.90;;;;;;7333366;19;109868;-66
2023/07/18 04:53:09;;;;;;;;;;;14.40;99.90;;;;;;7332362;19;109328;-67
2023/07/18 04:55:37;;;;;;;;;;;14.40;99.90;;;;;;7338453;19;110100;-67
2023/07/18 04:58:05;;;;;;;;;;;14.40;99.90;;;;;;7332045;19;110396;-67
2023/07/18 05:00:33;;;;;;;;;;;14.40;99.90;;;;;;7333532;19;109782;-67
2023/07/18 05:03:00;;;;;;;;;;;14.50;99.90;;;;;;7331620;19;109203;-66
2023/07/18 05:05:28;;;;;;;;;;;14.50;99.90;;;;;;7331499;19;110395;-66
2023/07/18 05:07:56;;;;;;;;;;;14.50;99.90;;;;;;7332913;19;109814;-68
2023/07/18 05:10:23;;;;;;;;;;;14.60;99.90;;;;;;7331053;19;110756;-69
2023/07/18 05:12:51;;;;;;;;;;;14.60;99.90;;;;;;7333834;19;109129;-66
2023/07/18 05:15:19;;;;;;;;;;;14.70;99.90;;;;;;7331841;19;110896;-68
2023/07/18 05:17:46;;;;;;;;;;;14.70;99.90;;;;;;7336660;19;110444;-71
2023/07/18 05:20:13;;;;;;;;;;;14.70;99.90;;;;;;7331893;19;109147;-70
2023/07/18 05:22:41;;;;;;;;;;;14.80;99.90;;;;;;7332133;19;110324;-70
2023/07/18 05:25:09;;;;;;;;;;;14.80;99.90;;;;;;7333862;19;110345;-69
2023/07/18 05:27:38;;;;;;;;;;;14.90;99.90;;;;;;7331574;19;110482;-71
2023/07/18 05:30:05;;;;;;;;;;;14.90;99.90;;;;;;7331022;19;109060;-71
2023/07/18 05:32:33;;;;;;;;;;;15.00;99.90;;;;;;7328450;19;113472;-68
2023/07/18 05:35:00;;;;;;;;;;;15.00;99.90;;;;;;7327435;19;109077;-67
2023/07/18 05:37:28;;;;;;;;;;;15.00;99.90;;;;;;7331454;19;108422;-67
2023/07/18 05:39:55;;;;;;;;;;;15.10;99.90;;;;;;7337201;19;108752;-67
2023/07/18 05:42:23;;;;;;;;;;;15.20;99.90;;;;;;7329379;19;113157;-67
2023/07/18 05:44:50;;;;;;;;;;;15.20;99.90;;;;;;7327750;19;108835;-68
2023/07/18 05:47:17;;;;;;;;;;;15.30;99.90;;;;;;7326796;19;110002;-68
2023/07/18 05:49:44;;;;;;;;;;;15.40;99.90;;;;;;7327187;19;109978;-68
2023/07/18 05:52:11;;;;;;;;;;;15.50;99.90;;;;;;7328204;19;109667;-69
2023/07/18 05:54:38;;;;;;;;;;;15.50;99.90;;;;;;7326420;19;109726;-68
2023/07/18 05:57:05;;;;;;;;;;;15.60;99.90;;;;;;7329364;19;108623;-68
2023/07/18 05:59:34;;;;;;;;;;;15.70;99.90;;;;;;7333140;19;109010;-69
2023/07/18 06:02:04;;;;;;;;;;;15.80;99.90;;;;;;7345860;19;110148;-68
2023/07/18 06:04:31;;;;;;;;;;;15.80;99.90;;;;;;7338493;19;108501;-68
2023/07/18 06:06:58;;;;;;;;;;;15.90;99.90;;;;;;7338532;19;110293;-69
2023/07/18 06:09:26;;;;;;;;;;;16.00;99.90;;;;;;7339541;19;108550;-69
2023/07/18 06:11:53;;;;;;;;;;;16.10;99.90;;;;;;7340666;19;108869;-68
2023/07/18 06:14:20;;;;;;;;;;;16.20;99.90;;;;;;7340093;19;109797;-69
2023/07/18 06:16:48;;;;;;;;;;;16.30;99.90;;;;;;7340570;19;108885;-69
2023/07/18 06:19:15;;;;;;;;;;;16.40;99.90;;;;;;7338553;19;108722;-68
2023/07/18 06:21:43;;;;;;;;;;;16.50;99.90;;;;;;7341192;19;110110;-69
2023/07/18 06:24:10;;;;;;;;;;;16.60;99.90;;;;;;7344859;19;109083;-69
2023/07/18 06:26:48;;;;;;;;;;;16.70;99.90;;;;;;7337715;19;109633;-68
2023/07/18 06:29:17;;;;;;;;;;;16.80;99.90;;;;;;7336186;19;108914;-69
2023/07/18 06:31:45;;;;;;;;;;;16.90;99.90;;;;;;7339251;19;108691;-69
2023/07/18 06:34:12;;;;;;;;;;;17.00;99.90;;;;;;7336003;19;109143;-68
2023/07/18 06:36:39;;;;;;;;;;;17.10;99.90;;;;;;7340572;19;108838;-68
2023/07/18 06:39:06;;;;;;;;;;;17.20;99.90;;;;;;7336396;19;108748;-68
2023/07/18 06:41:33;;;;;;;;;;;17.30;99.90;;;;;;7334878;19;110442;-68
2023/07/18 06:44:00;;;;;;;;;;;17.40;99.90;;;;;;7336936;19;109247;-68
2023/07/18 06:46:28;;;;;;;;;;;17.50;99.90;;;;;;7341243;19;110631;-67
2023/07/18 06:48:55;;;;;;;;;;;17.50;99.90;;;;;;7340533;19;109402;-67
2023/07/18 06:51:25;;;;;;;;;;;17.70;99.90;;;;;;7336643;19;108496;-67
2023/07/18 06:53:52;;;;;;;;;;;17.70;99.90;;;;;;7335626;19;109168;-67
2023/07/18 06:56:19;;;;;;;;;;;17.80;99.90;;;;;;7336848;19;108940;-71
2023/07/18 06:58:46;;;;;;;;;;;18.00;99.90;;;;;;7338781;19;108445;-68
2023/07/18 07:01:13;;;;;;;;;;;18.00;99.90;;;;;;7335950;19;109949;-68
2023/07/18 07:03:40;;;;;;;;;;;18.20;99.90;;;;;;7337835;19;109578;-67
2023/07/18 07:06:09;;;;;;;;;;;18.20;99.90;;;;;;7342901;19;115887;-68
2023/07/18 07:08:36;;;;;;;;;;;18.30;99.90;;;;;;7337502;19;109701;-68
2023/07/18 07:11:04;;;;;;;;;;;18.40;99.90;;;;;;7336137;19;109921;-68
2023/07/18 07:13:31;;;;;;;;;;;18.60;99.90;;;;;;7337157;19;110188;-69
2023/07/18 07:15:58;;;;;;;;;;;18.70;99.90;;;;;;7333275;19;108612;-68
2023/07/18 07:18:26;;;;;;;;;;;18.80;99.90;;;;;;7337183;19;109183;-68
2023/07/18 07:20:53;;;;;;;;;;;18.80;99.90;;;;;;7330107;19;110209;-68
2023/07/18 07:23:20;;;;;;;;;;;18.90;99.90;;;;;;7336036;19;109099;-68
2023/07/18 07:25:47;;;;;;;;;;;19.10;99.90;;;;;;7332194;19;109743;-68
2023/07/18 07:28:15;;;;;;;;;;;19.10;99.90;;;;;;7341603;19;109246;-68
2023/07/18 07:30:42;;;;;;;;;;;19.20;99.90;;;;;;7335728;19;109002;-68
2023/07/18 07:33:09;;;;;;;;;;;19.30;99.90;;;;;;7336456;19;110178;-68
2023/07/18 07:35:36;;;;;;;;;;;19.50;99.90;;;;;;7335865;19;109883;-68
2023/07/18 07:38:03;;;;;;;;;;;19.50;99.90;;;;;;7334816;19;108688;-68
2023/07/18 07:40:30;;;;;;;;;;;19.60;99.90;;;;;;7335383;19;110513;-68
2023/07/18 07:42:57;;;;;;;;;;;19.70;99.90;;;;;;7336546;19;112478;-68
2023/07/18 07:45:25;;;;;;;;;;;19.80;99.90;;;;;;7334314;19;112334;-68
2023/07/18 07:47:52;;;;;;;;;;;19.80;99.90;;;;;;7332592;19;110450;-68
2023/07/18 07:50:19;;;;;;;;;;;19.90;99.90;;;;;;7337255;19;110359;-69
2023/07/18 07:52:46;;;;;;;;;;;20.00;99.90;;;;;;7332642;19;110141;-67
2023/07/18 07:55:15;;;;;;;;;;;20.00;99.90;;;;;;7329199;19;109072;-67
2023/07/18 07:57:42;;;;;;;;;;;20.10;99.90;;;;;;7332422;19;110012;-68
2023/07/18 08:00:09;;;;;;;;;;;20.30;99.90;;;;;;7333772;19;110386;-67
2023/07/18 08:02:36;;;;;;;;;;;20.40;99.90;;;;;;7335190;19;110596;-67
2023/07/18 08:05:04;;;;;;;;;;;20.50;99.90;;;;;;7333645;19;109486;-67
2023/07/18 08:07:31;;;;;;;;;;;20.60;99.90;;;;;;7334132;19;109403;-66
2023/07/18 08:09:58;;;;;;;;;;;20.70;99.90;;;;;;7336485;19;109095;-66
2023/07/18 08:12:26;;;;;;;;;;;20.80;99.90;;;;;;7336689;19;108650;-67
2023/07/18 08:14:53;;;;;;;;;;;20.80;99.90;;;;;;7335143;19;109350;-67
2023/07/18 08:17:20;;;;;;;;;;;20.90;99.90;;;;;;7333152;19;109407;-67
2023/07/18 08:19:47;;;;;;;;;;;21.00;99.90;;;;;;7333246;19;113141;-67
2023/07/18 08:22:15;;;;;;;;;;;21.10;99.90;;;;;;7335289;19;109638;-67
2023/07/18 08:24:42;;;;;;;;;;;21.10;99.90;;;;;;7336395;19;109502;-67
2023/07/18 08:27:09;;;;;;;;;;;21.10;99.90;;;;;;7334048;19;109471;-67
2023/07/18 08:29:36;;;;;;;;;;;21.20;99.90;;;;;;7334884;19;109619;-67
2023/07/18 08:32:04;;;;;;;;;;;21.30;99.90;;;;;;7336100;19;108549;-66
2023/07/18 08:34:31;;;;;;;;;;;21.30;99.90;;;;;;7338778;19;109385;-66
2023/07/18 08:36:58;;;;;;;;;;;21.30;99.90;;;;;;7334724;19;108922;-67
2023/07/18 08:39:26;;;;;;;;;;;21.40;99.90;;;;;;7332774;19;109498;-67
2023/07/18 08:41:55;;;;;;;;;;;21.40;99.90;;;;;;7335850;19;109177;-67
2023/07/18 08:44:22;;;;;;;;;;;21.50;99.90;;;;;;7332358;19;111108;-67
2023/07/18 08:46:50;;;;;;;;;;;21.60;99.90;;;;;;7333052;19;109120;-67
2023/07/18 08:49:17;;;;;;;;;;;21.70;99.90;;;;;;7336914;19;108946;-67
2023/07/18 08:51:44;;;;;;;;;;;21.70;99.90;;;;;;7335287;19;108265;-67
2023/07/18 08:54:12;;;;;;;;;;;21.70;99.90;;;;;;7333030;19;110186;-66
2023/07/18 08:56:42;;;;;;;;;;;21.70;99.90;;;;;;7340858;19;108793;-67
2023/07/18 08:59:10;;;;;;;;;;;21.60;99.90;;;;;;7331849;19;109095;-67
2023/07/18 09:01:50;;;;;;;;;;;21.60;99.90;;;;;;7336068;19;108992;-67
2023/07/18 09:04:18;;;;;;;;;;;21.60;99.90;;;;;;7334901;19;109926;-67
2023/07/18 09:06:47;;;;;;;;;;;21.60;99.90;;;;;;7333621;19;110640;-67
2023/07/18 09:09:21;;;;;;;;;;;21.50;99.90;;;;;;7333970;19;108856;-68
2023/07/18 09:11:58;;;;;;;;;;;21.60;99.90;;;;;;7335680;19;108647;-67
2023/07/18 09:14:32;;;;;;;;;;;21.60;99.90;;;;;;7333599;19;110533;-67
2023/07/18 09:17:00;;;;;;;;;;;21.70;99.90;;;;;;7339107;19;110634;-67
2023/07/18 09:19:48;;;;;;;;;;;21.90;99.90;;;;;;7333546;19;109584;-67
2023/07/18 09:22:17;;;;;;;;;;;22.00;99.90;;;;;;7334022;19;110314;-67
2023/07/18 09:24:44;;;;;;;;;;;22.10;99.90;;;;;;7335335;19;109344;-67
2023/07/18 09:27:16;;;;;;;;;;;22.10;99.90;;;;;;7331764;19;110034;-67
2023/07/18 09:29:46;;;;;;;;;;;22.20;99.90;;;;;;7334635;19;109698;-67
2023/07/18 09:32:19;;;;;;;;;;;22.30;99.90;;;;;;7334422;19;108702;-67
2023/07/18 09:34:53;;;;;;;;;;;22.40;99.90;;;;;;7329058;19;111847;-67
2023/07/18 09:37:20;;;;;;;;;;;22.40;99.90;;;;;;7330070;19;108558;-67
2023/07/18 09:39:48;;;;;;;;;;;22.40;99.90;;;;;;7338960;19;111420;-67
2023/07/18 09:42:17;;;;;;;;;;;22.50;99.90;;;;;;7332412;19;109325;-68
2023/07/18 09:44:49;;;;;;;;;;;22.60;99.90;;;;;;7333229;19;109785;-67
2023/07/18 09:47:19;;;;;;;;;;;22.60;99.90;;;;;;7330732;19;110157;-66
2023/07/18 09:49:47;;;;;;;;;;;22.60;99.90;;;;;;7328066;19;108838;-68
2023/07/18 09:52:15;;;;;;;;;;;22.60;99.90;;;;;;7327890;19;109066;-68
2023/07/18 09:54:43;;;;;;;;;;;22.70;99.90;;;;;;7325873;19;109103;-67
2023/07/18 09:57:11;;;;;;;;;;;22.80;99.90;;;;;;7326022;19;110122;-68
2023/07/18 09:59:39;;;;;;;;;;;22.90;99.90;;;;;;7329650;19;108747;-67
2023/07/18 10:02:09;;;;;;;;;;;23.00;99.90;;;;;;7334757;19;110455;-67
2023/07/18 10:04:36;;;;;;;;;;;23.10;99.90;;;;;;7332964;19;108950;-68
2023/07/18 10:07:04;;;;;;;;;;;23.30;99.90;;;;;;7331171;19;109022;-68
2023/07/18 10:09:31;;;;;;;;;;;23.30;99.90;;;;;;7332290;19;109028;-68
2023/07/18 10:11:59;;;;;;;;;;;23.30;99.40;;;;;;7331165;19;108995;-68
2023/07/18 10:14:29;;;;;;;;;;;23.20;99.90;;;;;;7332507;19;110469;-67
2023/07/18 10:17:05;;;;;;;;;;;23.10;99.70;;;;;;7329351;19;109751;-67
2023/07/18 10:19:47;;;;;;;;;;;22.80;98.80;;;;;;7331243;19;108122;-67
2023/07/18 10:22:25;;;;;;;;;;;22.60;99.30;;;;;;7329355;19;109566;-67
2023/07/18 10:24:52;;;;;;;;;;;22.60;99.90;;;;;;7336579;19;108631;-68
2023/07/18 10:27:24;;;;;;;;;;;22.70;99.90;;;;;;7329285;19;110554;-68
2023/07/18 10:30:03;;;;;;;;;;;22.90;99.90;;;;;;7328036;19;110375;-67
2023/07/18 10:32:32;;;;;;;;;;;23.10;99.90;;;;;;7328836;19;110257;-68
2023/07/18 10:35:00;;;;;;;;;;;23.20;99.90;;;;;;7331286;19;109068;-68
2023/07/18 10:37:30;;;;;;;;;;;23.40;99.90;;;;;;7329651;19;108778;-68
2023/07/18 10:39:57;;;;;;;;;;;23.50;99.90;;;;;;7331057;19;109857;-68
2023/07/18 10:42:27;;;;;;;;;;;23.60;99.90;;;;;;7328370;19;110446;-68
2023/07/18 10:44:58;;;;;;;;;;;23.70;99.90;;;;;;7331388;19;109172;-69
2023/07/18 10:47:26;;;;;;;;;;;23.80;99.90;;;;;;7341095;19;109012;-68
2023/07/18 10:49:54;;;;;;;;;;;23.90;99.90;;;;;;7338632;19;110577;-68
2023/07/18 10:52:21;;;;;;;;;;;24.10;99.90;;;;;;7336550;19;110620;-68
2023/07/18 10:54:48;;;;;;;;;;;24.10;99.90;;;;;;7334000;19;110523;-68
2023/07/18 10:57:16;;;;;;;;;;;24.20;99.30;;;;;;7336234;19;109558;-68
2023/07/18 10:59:44;;;;;;;;;;;24.20;98.60;;;;;;7336055;19;109430;-69
2023/07/18 11:02:11;;;;;;;;;;;24.20;99.00;;;;;;7333536;19;110120;-68
2023/07/18 11:04:39;;;;;;;;;;;24.20;99.40;;;;;;7334235;19;109933;-68
2023/07/18 11:07:09;;;;;;;;;;;24.30;99.00;;;;;;7339009;19;108570;-69
2023/07/18 11:09:36;;;;;;;;;;;24.30;98.80;;;;;;7336638;19;108829;-68
2023/07/18 11:12:04;;;;;;;;;;;24.50;98.10;;;;;;7335292;19;109057;-69
2023/07/18 11:14:38;;;;;;;;;;;24.50;98.30;;;;;;7330952;19;111057;-69
2023/07/18 11:17:12;;;;;;;;;;;24.60;97.70;;;;;;7337761;19;109605;-69
2023/07/18 11:19:40;;;;;;;;;;;24.60;97.70;;;;;;7334268;19;109379;-68
2023/07/18 11:22:08;;;;;;;;;;;24.60;97.80;;;;;;7334783;19;112969;-69
2023/07/18 11:24:36;;;;;;;;;;;24.80;98.10;;;;;;7334198;19;109596;-69
2023/07/18 11:27:09;;;;;;;;;;;24.80;98.70;;;;;;7338101;19;109429;-68
2023/07/18 11:29:37;;;;;;;;;;;24.90;98.20;;;;;;7343142;19;109524;-68
2023/07/18 11:32:04;;;;;;;;;;;25.00;98.20;;;;;;7341411;19;108652;-68
2023/07/18 11:34:31;;;;;;;;;;;25.10;96.80;;;;;;7334489;19;109081;-69
2023/07/18 11:36:58;;;;;;;;;;;25.10;97.70;;;;;;7334974;19;108948;-68
2023/07/18 11:39:28;;;;;;;;;;;25.20;97.00;;;;;;7336592;19;109087;-69
2023/07/18 11:42:05;;;;;;;;;;;25.20;96.90;;;;;;7332881;19;110204;-72
2023/07/18 11:44:32;;;;;;;;;;;25.30;97.10;;;;;;7331724;19;109187;-70
2023/07/18 11:46:59;;;;;;;;;;;25.40;97.00;;;;;;7333529;19;111015;-70
2023/07/18 11:49:35;;;;;;;;;;;25.40;96.60;;;;;;7336657;19;110095;-70
2023/07/18 11:52:04;;;;;;;;;;;25.50;96.00;;;;;;7340852;19;108879;-69
2023/07/18 11:54:35;;;;;;;;;;;25.50;96.40;;;;;;7333336;19;110319;-70
2023/07/18 11:57:03;;;;;;;;;;;25.50;96.40;;;;;;7330135;19;108897;-70
2023/07/18 11:59:31;;;;;;;;;;;25.50;95.10;;;;;;7334973;19;110098;-70
2023/07/18 12:01:59;;;;;;;;;;;25.60;95.80;;;;;;7335114;19;110400;-69
2023/07/18 12:04:26;;;;;;;;;;;25.70;95.60;;;;;;7333641;19;109481;-71
2023/07/18 12:06:53;;;;;;;;;;;25.80;95.80;;;;;;7337192;19;109088;-69
2023/07/18 12:09:21;;;;;;;;;;;25.80;95.30;;;;;;7337629;19;110505;-70
2023/07/18 12:11:48;;;;;;;;;;;25.90;94.30;;;;;;7338172;19;108283;-70
2023/07/18 12:14:15;;;;;;;;;;;26.00;95.10;;;;;;7337709;19;108824;-71
2023/07/18 12:16:43;;;;;;;;;;;26.10;94.60;;;;;;7335797;19;108903;-72
2023/07/18 12:19:10;;;;;;;;;;;26.20;94.00;;;;;;7333301;19;109309;-71
2023/07/18 12:21:37;;;;;;;;;;;26.20;94.90;;;;;;7333838;19;110438;-71
2023/07/18 12:24:04;;;;;;;;;;;26.30;94.10;;;;;;7333430;19;109021;-71
2023/07/18 12:26:31;;;;;;;;;;;26.50;94.60;;;;;;7335150;19;108501;-70
2023/07/18 12:28:58;;;;;;;;;;;26.50;93.60;;;;;;7333340;19;109258;-73
2023/07/18 12:31:26;;;;;;;;;;;26.60;93.90;;;;;;7336750;19;108488;-76
2023/07/18 12:33:53;;;;;;;;;;;26.70;94.20;;;;;;7333304;19;108571;-73
2023/07/18 12:36:20;;;;;;;;;;;26.90;92.40;;;;;;7341872;19;109130;-72
2023/07/18 12:38:48;;;;;;;;;;;26.90;93.10;;;;;;7334340;19;109605;-72
2023/07/18 12:41:16;;;;;;;;;;;27.00;92.20;;;;;;7336038;19;110149;-74
2023/07/18 12:43:44;;;;;;;;;;;27.00;91.70;;;;;;7335362;19;108432;-73
2023/07/18 12:46:11;;;;;;;;;;;27.00;93.30;;;;;;7332082;19;108939;-72
2023/07/18 12:48:38;;;;;;;;;;;27.10;92.70;;;;;;7331884;19;109149;-71
2023/07/18 12:51:16;;;;;;;;;;;27.20;92.70;;;;;;7336737;19;108803;-70
2023/07/18 12:53:43;;;;;;;;;;;27.40;93.20;;;;;;7333922;19;108976;-71
2023/07/18 12:56:10;;;;;;;;;;;27.50;92.10;;;;;;7334199;19;109927;-73
2023/07/18 12:58:37;;;;;;;;;;;27.60;92.30;;;;;;7335541;19;110795;-71
2023/07/18 13:01:04;;;;;;;;;;;27.70;90.00;;;;;;7333414;19;108987;-70
2023/07/18 13:03:32;;;;;;;;;;;27.60;92.10;;;;;;7335440;19;109306;-69
2023/07/18 13:06:00;;;;;;;;;;;27.80;91.30;;;;;;7334557;19;111286;-68
2023/07/18 13:08:28;;;;;;;;;;;27.90;90.00;;;;;;7333882;19;109141;-70
2023/07/18 13:10:55;;;;;;;;;;;28.00;91.00;;;;;;7335086;19;110177;-68
2023/07/18 13:13:22;;;;;;;;;;;27.90;83.90;;;;;;7333887;19;112192;-68
2023/07/18 13:15:50;;;;;;;;;;;27.70;89.80;;;;;;7334035;19;110496;-69
2023/07/18 13:18:17;;;;;;;;;;;27.70;90.10;;;;;;7339485;19;108927;-69
2023/07/18 13:20:45;;;;;;;;;;;28.00;90.90;;;;;;7332466;19;109265;-68
2023/07/18 13:23:12;;;;;;;;;;;28.10;89.10;;;;;;7334192;19;109376;-69
2023/07/18 13:25:39;;;;;;;;;;;28.20;90.50;;;;;;7333253;19;108913;-67
2023/07/18 13:28:06;;;;;;;;;;;28.30;90.10;;;;;;7333967;19;109141;-70
2023/07/18 13:30:35;;;;;;;;;;;28.50;90.70;;;;;;7333646;19;108623;-69
2023/07/18 13:33:04;;;;;;;;;;;28.70;90.10;;;;;;7330746;19;108600;-69
2023/07/18 13:35:31;;;;;;;;;;;28.80;90.30;;;;;;7332563;19;109991;-69
2023/07/18 13:37:58;;;;;;;;;;;28.90;87.50;;;;;;7335187;19;108883;-70
2023/07/18 13:40:26;;;;;;;;;;;28.90;86.90;;;;;;7337310;19;110256;-69
2023/07/18 13:42:53;;;;;;;;;;;29.00;88.40;;;;;;7334490;19;108672;-70
2023/07/18 13:45:20;;;;;;;;;;;29.00;88.40;;;;;;7329399;19;108577;-69
2023/07/18 13:47:49;;;;;;;;;;;29.10;86.00;;;;;;7333956;19;109270;-70
2023/07/18 13:50:17;;;;;;;;;;;29.20;89.90;;;;;;7334862;19;110523;-70
2023/07/18 13:52:56;;;;;;;;;;;29.30;87.60;;;;;;7333760;19;108842;-68
2023/07/18 13:55:23;;;;;;;;;;;29.40;86.70;;;;;;7327073;19;109152;-67
2023/07/18 13:57:50;;;;;;;;;;;29.50;85.60;;;;;;7331775;19;110075;-68
2023/07/18 14:00:17;;;;;;;;;;;29.40;88.00;;;;;;7331854;19;109037;-68
2023/07/18 14:02:44;;;;;;;;;;;29.50;86.10;;;;;;7336060;19;111463;-69
2023/07/18 14:05:12;;;;;;;;;;;29.50;83.30;;;;;;7332666;19;109852;-68
2023/07/18 14:07:39;;;;;;;;;;;29.50;86.30;;;;;;7332204;19;109229;-68
2023/07/18 14:10:06;;;;;;;;;;;29.50;88.20;;;;;;7329568;19;109942;-68